sensor_id;sensor_type;location;lat;lon;timestamp;temperature;humidity
20081;DHT22;10200;49.232;9.222;2023-07-13T00:00:15;22.80;66.10
20081;DHT22;10200;49.232;9.222;2023-07-13T00:02:42;22.80;66.20
20081;DHT22;10200;49.232;9.222;2023-07-13T00:05:09;22.70;66.00
20081;DHT22;10200;49.232;9.222;2023-07-13T00:07:35;22.70;66.30
20081;DHT22;10200;49.232;9.222;2023-07-13T00:10:02;22.70;66.40
20081;DHT22;10200;49.232;9.222;2023-07-13T00:12:33;22.60;66.00
20081;DHT22;10200;49.232;9.222;2023-07-13T00:15:02;22.60;66.30
20081;DHT22;10200;49.232;9.222;2023-07-13T00:17:28;22.60;66.30
20081;DHT22;10200;49.232;9.222;2023-07-13T00:19:56;22.40;66.30
20081;DHT22;10200;49.232;9.222;2023-07-13T00:22:22;22.40;66.40
20081;DHT22;10200;49.232;9.222;2023-07-13T00:24:52;22.30;66.40
20081;DHT22;10200;49.232;9.222;2023-07-13T00:27:21;22.30;66.90
20081;DHT22;10200;49.232;9.222;2023-07-13T00:29:47;22.30;66.80
20081;DHT22;10200;49.232;9.222;2023-07-13T00:32:13;22.30;67.00
20081;DHT22;10200;49.232;9.222;2023-07-13T00:34:39;22.30;66.90
20081;DHT22;10200;49.232;9.222;2023-07-13T00:37:06;22.30;66.60
20081;DHT22;10200;49.232;9.222;2023-07-13T00:39:35;22.30;66.60
20081;DHT22;10200;49.232;9.222;2023-07-13T00:42:02;22.20;66.70
20081;DHT22;10200;49.232;9.222;2023-07-13T00:44:28;22.20;66.60
20081;DHT22;10200;49.232;9.222;2023-07-13T00:46:54;22.10;66.60
20081;DHT22;10200;49.232;9.222;2023-07-13T00:49:23;22.10;66.80
20081;DHT22;10200;49.232;9.222;2023-07-13T00:51:53;22.00;67.20
20081;DHT22;10200;49.232;9.222;2023-07-13T00:54:24;21.90;67.20
20081;DHT22;10200;49.232;9.222;2023-07-13T00:56:51;22.00;67.60
20081;DHT22;10200;49.232;9.222;2023-07-13T00:59:20;21.90;67.40
20081;DHT22;10200;49.232;9.222;2023-07-13T01:01:46;21.90;67.40
20081;DHT22;10200;49.232;9.222;2023-07-13T01:04:12;21.80;67.50
20081;DHT22;10200;49.232;9.222;2023-07-13T01:06:39;21.70;67.50
20081;DHT22;10200;49.232;9.222;2023-07-13T01:09:07;21.70;67.20
20081;DHT22;10200;49.232;9.222;2023-07-13T01:11:34;21.60;67.40
20081;DHT22;10200;49.232;9.222;2023-07-13T01:14:01;21.60;67.70
20081;DHT22;10200;49.232;9.222;2023-07-13T01:16:33;21.50;67.60
20081;DHT22;10200;49.232;9.222;2023-07-13T01:18:59;21.50;67.60
20081;DHT22;10200;49.232;9.222;2023-07-13T01:21:29;21.50;67.50
20081;DHT22;10200;49.232;9.222;2023-07-13T01:23:55;21.50;67.60
20081;DHT22;10200;49.232;9.222;2023-07-13T01:26:21;21.40;67.40
20081;DHT22;10200;49.232;9.222;2023-07-13T01:28:47;21.40;67.50
20081;DHT22;10200;49.232;9.222;2023-07-13T01:31:13;21.40;67.30
20081;DHT22;10200;49.232;9.222;2023-07-13T01:33:40;21.30;67.40
20081;DHT22;10200;49.232;9.222;2023-07-13T01:36:07;21.30;67.20
20081;DHT22;10200;49.232;9.222;2023-07-13T01:38:35;21.30;67.00
20081;DHT22;10200;49.232;9.222;2023-07-13T01:41:03;21.20;67.40
20081;DHT22;10200;49.232;9.222;2023-07-13T01:43:29;21.20;67.40
20081;DHT22;10200;49.232;9.222;2023-07-13T01:45:54;21.20;67.40
20081;DHT22;10200;49.232;9.222;2023-07-13T01:48:20;21.20;67.30
20081;DHT22;10200;49.232;9.222;2023-07-13T01:50:46;21.30;67.60
20081;DHT22;10200;49.232;9.222;2023-07-13T01:53:12;21.30;67.60
20081;DHT22;10200;49.232;9.222;2023-07-13T01:55:38;21.30;67.40
20081;DHT22;10200;49.232;9.222;2023-07-13T01:58:04;21.30;67.90
20081;DHT22;10200;49.232;9.222;2023-07-13T02:00:30;21.20;68.10
20081;DHT22;10200;49.232;9.222;2023-07-13T02:02:56;21.20;68.30
20081;DHT22;10200;49.232;9.222;2023-07-13T02:05:22;21.20;68.10
20081;DHT22;10200;49.232;9.222;2023-07-13T02:07:48;21.20;68.30
20081;DHT22;10200;49.232;9.222;2023-07-13T02:10:14;21.10;68.50
20081;DHT22;10200;49.232;9.222;2023-07-13T02:12:41;21.10;68.50
20081;DHT22;10200;49.232;9.222;2023-07-13T02:15:07;21.00;68.70
20081;DHT22;10200;49.232;9.222;2023-07-13T02:17:35;21.00;68.20
20081;DHT22;10200;49.232;9.222;2023-07-13T02:20:01;21.00;68.70
20081;DHT22;10200;49.232;9.222;2023-07-13T02:22:27;20.90;68.60
20081;DHT22;10200;49.232;9.222;2023-07-13T02:24:53;20.90;68.70
20081;DHT22;10200;49.232;9.222;2023-07-13T02:27:19;20.90;68.90
20081;DHT22;10200;49.232;9.222;2023-07-13T02:29:44;20.90;69.30
20081;DHT22;10200;49.232;9.222;2023-07-13T02:32:10;20.80;68.90
20081;DHT22;10200;49.232;9.222;2023-07-13T02:34:36;20.80;69.30
20081;DHT22;10200;49.232;9.222;2023-07-13T02:37:01;20.70;69.50
20081;DHT22;10200;49.232;9.222;2023-07-13T02:39:28;20.60;69.60
20081;DHT22;10200;49.232;9.222;2023-07-13T02:41:53;20.50;69.80
20081;DHT22;10200;49.232;9.222;2023-07-13T02:44:19;20.30;70.40
20081;DHT22;10200;49.232;9.222;2023-07-13T02:46:45;20.20;70.70
20081;DHT22;10200;49.232;9.222;2023-07-13T02:49:10;20.20;71.80
20081;DHT22;10200;49.232;9.222;2023-07-13T02:51:36;20.20;72.10
20081;DHT22;10200;49.232;9.222;2023-07-13T02:54:03;20.10;72.40
20081;DHT22;10200;49.232;9.222;2023-07-13T02:56:31;20.10;73.00
20081;DHT22;10200;49.232;9.222;2023-07-13T02:58:58;20.00;73.40
20081;DHT22;10200;49.232;9.222;2023-07-13T03:01:23;19.90;73.60
20081;DHT22;10200;49.232;9.222;2023-07-13T03:03:50;19.90;74.20
20081;DHT22;10200;49.232;9.222;2023-07-13T03:06:16;19.70;74.50
20081;DHT22;10200;49.232;9.222;2023-07-13T03:08:43;19.60;75.40
20081;DHT22;10200;49.232;9.222;2023-07-13T03:11:13;19.70;76.10
20081;DHT22;10200;49.232;9.222;2023-07-13T03:13:40;19.70;76.50
20081;DHT22;10200;49.232;9.222;2023-07-13T03:16:07;19.60;76.70
20081;DHT22;10200;49.232;9.222;2023-07-13T03:18:33;19.60;77.10
20081;DHT22;10200;49.232;9.222;2023-07-13T03:20:59;19.60;77.60
20081;DHT22;10200;49.232;9.222;2023-07-13T03:23:25;19.60;77.60
20081;DHT22;10200;49.232;9.222;2023-07-13T03:26:00;19.60;77.20
20081;DHT22;10200;49.232;9.222;2023-07-13T03:28:26;19.70;77.40
20081;DHT22;10200;49.232;9.222;2023-07-13T03:31:02;19.60;77.40
20081;DHT22;10200;49.232;9.222;2023-07-13T03:33:28;19.60;77.20
20081;DHT22;10200;49.232;9.222;2023-07-13T03:35:54;19.60;77.00
20081;DHT22;10200;49.232;9.222;2023-07-13T03:38:19;19.60;77.10
20081;DHT22;10200;49.232;9.222;2023-07-13T03:40:45;19.60;77.70
20081;DHT22;10200;49.232;9.222;2023-07-13T03:43:11;19.60;77.70
20081;DHT22;10200;49.232;9.222;2023-07-13T03:45:38;19.50;77.90
20081;DHT22;10200;49.232;9.222;2023-07-13T03:48:04;19.50;79.00
20081;DHT22;10200;49.232;9.222;2023-07-13T03:50:31;19.40;78.40
20081;DHT22;10200;49.232;9.222;2023-07-13T03:52:58;19.40;79.00
20081;DHT22;10200;49.232;9.222;2023-07-13T03:55:24;19.50;79.20
20081;DHT22;10200;49.232;9.222;2023-07-13T03:57:57;19.40;79.30
20081;DHT22;10200;49.232;9.222;2023-07-13T04:00:23;19.40;79.50
20081;DHT22;10200;49.232;9.222;2023-07-13T04:02:49;19.40;79.10
20081;DHT22;10200;49.232;9.222;2023-07-13T04:05:15;19.30;79.50
20081;DHT22;10200;49.232;9.222;2023-07-13T04:07:41;19.30;80.30
20081;DHT22;10200;49.232;9.222;2023-07-13T04:10:07;19.30;80.40
20081;DHT22;10200;49.232;9.222;2023-07-13T04:12:33;19.40;80.30
20081;DHT22;10200;49.232;9.222;2023-07-13T04:14:59;19.40;80.40
20081;DHT22;10200;49.232;9.222;2023-07-13T04:17:24;19.50;80.20
20081;DHT22;10200;49.232;9.222;2023-07-13T04:19:50;19.50;79.80
20081;DHT22;10200;49.232;9.222;2023-07-13T04:22:16;19.40;79.60
20081;DHT22;10200;49.232;9.222;2023-07-13T04:24:41;19.50;80.10
20081;DHT22;10200;49.232;9.222;2023-07-13T04:27:07;19.50;80.30
20081;DHT22;10200;49.232;9.222;2023-07-13T04:29:33;19.50;80.00
20081;DHT22;10200;49.232;9.222;2023-07-13T04:31:58;19.50;80.30
20081;DHT22;10200;49.232;9.222;2023-07-13T04:34:24;19.50;80.30
20081;DHT22;10200;49.232;9.222;2023-07-13T04:36:50;19.50;80.80
20081;DHT22;10200;49.232;9.222;2023-07-13T04:39:16;19.50;81.20
20081;DHT22;10200;49.232;9.222;2023-07-13T04:41:41;19.60;81.10
20081;DHT22;10200;49.232;9.222;2023-07-13T04:44:08;19.70;81.10
20081;DHT22;10200;49.232;9.222;2023-07-13T04:46:34;19.70;81.00
20081;DHT22;10200;49.232;9.222;2023-07-13T04:49:00;19.80;80.40
20081;DHT22;10200;49.232;9.222;2023-07-13T04:51:26;19.90;79.60
20081;DHT22;10200;49.232;9.222;2023-07-13T04:53:52;19.90;79.90
20081;DHT22;10200;49.232;9.222;2023-07-13T04:56:18;19.90;80.00
20081;DHT22;10200;49.232;9.222;2023-07-13T04:58:45;20.10;80.40
20081;DHT22;10200;49.232;9.222;2023-07-13T05:01:10;20.20;79.80
20081;DHT22;10200;49.232;9.222;2023-07-13T05:03:36;20.20;80.00
20081;DHT22;10200;49.232;9.222;2023-07-13T05:06:07;20.30;79.20
20081;DHT22;10200;49.232;9.222;2023-07-13T05:08:33;20.30;79.00
20081;DHT22;10200;49.232;9.222;2023-07-13T05:11:00;20.30;78.80
20081;DHT22;10200;49.232;9.222;2023-07-13T05:13:26;20.30;79.20
20081;DHT22;10200;49.232;9.222;2023-07-13T05:16:00;20.20;80.10
20081;DHT22;10200;49.232;9.222;2023-07-13T05:18:26;20.40;80.30
20081;DHT22;10200;49.232;9.222;2023-07-13T05:21:00;20.30;79.90
20081;DHT22;10200;49.232;9.222;2023-07-13T05:23:27;20.40;80.70
20081;DHT22;10200;49.232;9.222;2023-07-13T05:25:53;20.40;80.90
20081;DHT22;10200;49.232;9.222;2023-07-13T05:28:18;20.30;80.80
20081;DHT22;10200;49.232;9.222;2023-07-13T05:30:49;20.50;82.50
20081;DHT22;10200;49.232;9.222;2023-07-13T05:33:15;20.50;82.00
20081;DHT22;10200;49.232;9.222;2023-07-13T05:35:41;20.60;83.00
20081;DHT22;10200;49.232;9.222;2023-07-13T05:38:07;20.70;82.80
20081;DHT22;10200;49.232;9.222;2023-07-13T05:40:32;20.80;82.00
20081;DHT22;10200;49.232;9.222;2023-07-13T05:42:58;20.90;81.60
20081;DHT22;10200;49.232;9.222;2023-07-13T05:45:24;21.10;81.20
20081;DHT22;10200;49.232;9.222;2023-07-13T05:47:49;21.30;81.50
20081;DHT22;10200;49.232;9.222;2023-07-13T05:50:15;21.50;81.20
20081;DHT22;10200;49.232;9.222;2023-07-13T05:52:41;21.80;82.80
20081;DHT22;10200;49.232;9.222;2023-07-13T05:55:07;22.20;79.90
20081;DHT22;10200;49.232;9.222;2023-07-13T05:57:32;22.50;77.50
20081;DHT22;10200;49.232;9.222;2023-07-13T05:59:58;22.60;74.00
20081;DHT22;10200;49.232;9.222;2023-07-13T06:02:24;22.50;72.90
20081;DHT22;10200;49.232;9.222;2023-07-13T06:04:51;22.40;73.80
20081;DHT22;10200;49.232;9.222;2023-07-13T06:07:16;22.40;73.90
20081;DHT22;10200;49.232;9.222;2023-07-13T06:09:42;22.40;73.00
20081;DHT22;10200;49.232;9.222;2023-07-13T06:12:08;22.30;72.80
20081;DHT22;10200;49.232;9.222;2023-07-13T06:14:33;22.20;72.80
20081;DHT22;10200;49.232;9.222;2023-07-13T06:16:59;22.10;73.40
20081;DHT22;10200;49.232;9.222;2023-07-13T06:19:25;21.90;73.90
20081;DHT22;10200;49.232;9.222;2023-07-13T06:21:51;21.80;75.10
20081;DHT22;10200;49.232;9.222;2023-07-13T06:24:16;21.80;75.60
20081;DHT22;10200;49.232;9.222;2023-07-13T06:26:42;21.80;75.90
20081;DHT22;10200;49.232;9.222;2023-07-13T06:29:08;21.80;75.90
20081;DHT22;10200;49.232;9.222;2023-07-13T06:31:34;22.00;76.90
20081;DHT22;10200;49.232;9.222;2023-07-13T06:34:00;22.10;75.80
20081;DHT22;10200;49.232;9.222;2023-07-13T06:36:25;22.30;75.20
20081;DHT22;10200;49.232;9.222;2023-07-13T06:38:51;22.50;75.50
20081;DHT22;10200;49.232;9.222;2023-07-13T06:41:16;22.90;74.70
20081;DHT22;10200;49.232;9.222;2023-07-13T06:43:42;23.10;73.00
20081;DHT22;10200;49.232;9.222;2023-07-13T06:46:08;23.30;73.10
20081;DHT22;10200;49.232;9.222;2023-07-13T06:48:35;23.60;73.10
20081;DHT22;10200;49.232;9.222;2023-07-13T06:51:01;23.90;71.30
20081;DHT22;10200;49.232;9.222;2023-07-13T06:53:27;24.50;68.30
20081;DHT22;10200;49.232;9.222;2023-07-13T06:55:53;25.00;63.90
20081;DHT22;10200;49.232;9.222;2023-07-13T06:58:19;25.50;61.60
20081;DHT22;10200;49.232;9.222;2023-07-13T07:00:45;25.50;58.00
20081;DHT22;10200;49.232;9.222;2023-07-13T07:03:12;25.40;57.00
20081;DHT22;10200;49.232;9.222;2023-07-13T07:05:38;25.50;56.80
20081;DHT22;10200;49.232;9.222;2023-07-13T07:08:04;25.10;55.70
20081;DHT22;10200;49.232;9.222;2023-07-13T07:10:30;25.30;57.00
20081;DHT22;10200;49.232;9.222;2023-07-13T07:12:57;25.70;55.40
20081;DHT22;10200;49.232;9.222;2023-07-13T07:15:22;25.80;55.90
20081;DHT22;10200;49.232;9.222;2023-07-13T07:17:48;26.10;54.00
20081;DHT22;10200;49.232;9.222;2023-07-13T07:20:14;26.40;53.20
20081;DHT22;10200;49.232;9.222;2023-07-13T07:22:39;26.50;52.30
20081;DHT22;10200;49.232;9.222;2023-07-13T07:25:05;26.80;51.90
20081;DHT22;10200;49.232;9.222;2023-07-13T07:27:31;26.90;52.50
20081;DHT22;10200;49.232;9.222;2023-07-13T07:29:57;27.20;51.60
20081;DHT22;10200;49.232;9.222;2023-07-13T07:32:23;27.60;51.00
20081;DHT22;10200;49.232;9.222;2023-07-13T07:34:49;27.70;50.30
20081;DHT22;10200;49.232;9.222;2023-07-13T07:37:15;28.00;49.40
20081;DHT22;10200;49.232;9.222;2023-07-13T07:39:43;27.80;48.90
20081;DHT22;10200;49.232;9.222;2023-07-13T07:42:09;27.70;49.70
20081;DHT22;10200;49.232;9.222;2023-07-13T07:44:35;27.90;49.70
20081;DHT22;10200;49.232;9.222;2023-07-13T07:47:02;28.20;48.90
20081;DHT22;10200;49.232;9.222;2023-07-13T07:49:28;28.30;48.20
20081;DHT22;10200;49.232;9.222;2023-07-13T07:51:54;28.30;48.80
20081;DHT22;10200;49.232;9.222;2023-07-13T07:54:19;28.40;47.50
20081;DHT22;10200;49.232;9.222;2023-07-13T07:56:45;28.30;48.10
20081;DHT22;10200;49.232;9.222;2023-07-13T07:59:10;28.50;47.50
20081;DHT22;10200;49.232;9.222;2023-07-13T08:01:37;28.60;47.20
20081;DHT22;10200;49.232;9.222;2023-07-13T08:04:02;28.70;46.80
20081;DHT22;10200;49.232;9.222;2023-07-13T08:06:28;28.90;46.60
20081;DHT22;10200;49.232;9.222;2023-07-13T08:08:55;29.00;45.90
20081;DHT22;10200;49.232;9.222;2023-07-13T08:11:21;29.10;45.10
20081;DHT22;10200;49.232;9.222;2023-07-13T08:13:47;29.10;45.10
20081;DHT22;10200;49.232;9.222;2023-07-13T08:16:13;29.10;45.60
20081;DHT22;10200;49.232;9.222;2023-07-13T08:18:38;29.30;45.10
20081;DHT22;10200;49.232;9.222;2023-07-13T08:21:05;29.40;44.80
20081;DHT22;10200;49.232;9.222;2023-07-13T08:23:31;29.70;46.00
20081;DHT22;10200;49.232;9.222;2023-07-13T08:25:57;30.00;43.90
20081;DHT22;10200;49.232;9.222;2023-07-13T08:28:24;30.00;43.70
20081;DHT22;10200;49.232;9.222;2023-07-13T08:30:51;29.90;43.70
20081;DHT22;10200;49.232;9.222;2023-07-13T08:33:22;30.30;44.10
20081;DHT22;10200;49.232;9.222;2023-07-13T08:35:51;30.60;42.30
20081;DHT22;10200;49.232;9.222;2023-07-13T08:38:17;30.40;41.80
20081;DHT22;10200;49.232;9.222;2023-07-13T08:40:44;30.40;41.50
20081;DHT22;10200;49.232;9.222;2023-07-13T08:43:18;30.30;41.60
20081;DHT22;10200;49.232;9.222;2023-07-13T08:45:46;30.40;42.00
20081;DHT22;10200;49.232;9.222;2023-07-13T08:54:15;30.50;41.20
20081;DHT22;10200;49.232;9.222;2023-07-13T08:56:45;30.80;40.40
20081;DHT22;10200;49.232;9.222;2023-07-13T08:59:15;30.90;39.00
20081;DHT22;10200;49.232;9.222;2023-07-13T09:10:47;31.20;38.90
20081;DHT22;10200;49.232;9.222;2023-07-13T09:16:05;31.60;38.40
20081;DHT22;10200;49.232;9.222;2023-07-13T09:18:39;31.80;38.40
20081;DHT22;10200;49.232;9.222;2023-07-13T09:21:23;31.70;37.10
20081;DHT22;10200;49.232;9.222;2023-07-13T09:23:53;31.60;36.20
20081;DHT22;10200;49.232;9.222;2023-07-13T09:26:23;31.50;36.20
20081;DHT22;10200;49.232;9.222;2023-07-13T09:28:55;31.40;36.90
20081;DHT22;10200;49.232;9.222;2023-07-13T09:31:34;31.10;38.70
20081;DHT22;10200;49.232;9.222;2023-07-13T09:34:02;31.20;38.10
20081;DHT22;10200;49.232;9.222;2023-07-13T09:36:31;31.20;37.20
20081;DHT22;10200;49.232;9.222;2023-07-13T09:39:17;31.20;37.20
20081;DHT22;10200;49.232;9.222;2023-07-13T09:41:52;31.20;37.50
20081;DHT22;10200;49.232;9.222;2023-07-13T09:44:38;31.10;37.50
20081;DHT22;10200;49.232;9.222;2023-07-13T09:47:19;31.30;37.70
20081;DHT22;10200;49.232;9.222;2023-07-13T09:49:48;31.50;37.10
20081;DHT22;10200;49.232;9.222;2023-07-13T09:52:19;31.60;36.80
20081;DHT22;10200;49.232;9.222;2023-07-13T09:54:48;31.40;37.10
20081;DHT22;10200;49.232;9.222;2023-07-13T09:57:18;31.70;37.40
20081;DHT22;10200;49.232;9.222;2023-07-13T09:59:47;31.20;36.10
20081;DHT22;10200;49.232;9.222;2023-07-13T10:02:31;31.00;37.50
20081;DHT22;10200;49.232;9.222;2023-07-13T10:05:05;31.00;37.40
20081;DHT22;10200;49.232;9.222;2023-07-13T10:07:32;31.10;37.60
20081;DHT22;10200;49.232;9.222;2023-07-13T10:10:14;31.00;37.40
20081;DHT22;10200;49.232;9.222;2023-07-13T10:12:40;31.20;36.40
20081;DHT22;10200;49.232;9.222;2023-07-13T10:15:19;31.40;36.80
20081;DHT22;10200;49.232;9.222;2023-07-13T10:17:46;31.30;35.80
20081;DHT22;10200;49.232;9.222;2023-07-13T10:20:12;31.10;36.60
20081;DHT22;10200;49.232;9.222;2023-07-13T10:25:24;30.80;36.90
20081;DHT22;10200;49.232;9.222;2023-07-13T10:27:58;31.10;37.60
20081;DHT22;10200;49.232;9.222;2023-07-13T10:30:28;31.50;37.40
20081;DHT22;10200;49.232;9.222;2023-07-13T10:33:02;31.70;36.90
20081;DHT22;10200;49.232;9.222;2023-07-13T10:35:30;31.90;35.20
20081;DHT22;10200;49.232;9.222;2023-07-13T10:38:04;31.40;34.80
20081;DHT22;10200;49.232;9.222;2023-07-13T10:40:40;31.10;36.30
20081;DHT22;10200;49.232;9.222;2023-07-13T10:43:18;30.60;35.00
20081;DHT22;10200;49.232;9.222;2023-07-13T10:45:47;30.50;38.70
20081;DHT22;10200;49.232;9.222;2023-07-13T10:48:15;30.70;37.90
20081;DHT22;10200;49.232;9.222;2023-07-13T10:50:43;30.70;36.50
20081;DHT22;10200;49.232;9.222;2023-07-13T10:53:29;30.40;36.00
20081;DHT22;10200;49.232;9.222;2023-07-13T10:55:59;30.30;37.70
20081;DHT22;10200;49.232;9.222;2023-07-13T10:58:36;30.40;37.30
20081;DHT22;10200;49.232;9.222;2023-07-13T11:03:46;31.10;37.90
20081;DHT22;10200;49.232;9.222;2023-07-13T11:06:16;31.40;36.60
20081;DHT22;10200;49.232;9.222;2023-07-13T11:14:00;31.50;35.10
20081;DHT22;10200;49.232;9.222;2023-07-13T11:16:42;31.70;35.00
20081;DHT22;10200;49.232;9.222;2023-07-13T11:19:25;31.80;34.90
20081;DHT22;10200;49.232;9.222;2023-07-13T11:25:00;31.70;34.80
20081;DHT22;10200;49.232;9.222;2023-07-13T11:27:41;31.50;35.10
20081;DHT22;10200;49.232;9.222;2023-07-13T11:38:30;31.40;35.80
20081;DHT22;10200;49.232;9.222;2023-07-13T11:41:00;31.80;35.80
20081;DHT22;10200;49.232;9.222;2023-07-13T11:43:29;31.80;35.00
20081;DHT22;10200;49.232;9.222;2023-07-13T11:45:56;31.50;34.60
20081;DHT22;10200;49.232;9.222;2023-07-13T11:48:25;31.40;35.70
20081;DHT22;10200;49.232;9.222;2023-07-13T11:51:03;31.40;35.80
20081;DHT22;10200;49.232;9.222;2023-07-13T11:53:37;31.20;36.20
20081;DHT22;10200;49.232;9.222;2023-07-13T11:56:03;31.00;36.50
20081;DHT22;10200;49.232;9.222;2023-07-13T11:58:30;30.70;37.00
20081;DHT22;10200;49.232;9.222;2023-07-13T12:00:58;30.60;36.90
20081;DHT22;10200;49.232;9.222;2023-07-13T12:03:26;30.80;37.90
20081;DHT22;10200;49.232;9.222;2023-07-13T12:06:02;30.60;36.70
20081;DHT22;10200;49.232;9.222;2023-07-13T12:08:28;30.30;36.60
20081;DHT22;10200;49.232;9.222;2023-07-13T12:11:00;30.00;37.70
20081;DHT22;10200;49.232;9.222;2023-07-13T12:13:37;29.90;38.70
20081;DHT22;10200;49.232;9.222;2023-07-13T12:16:12;29.80;39.30
20081;DHT22;10200;49.232;9.222;2023-07-13T12:18:39;30.00;39.80
20081;DHT22;10200;49.232;9.222;2023-07-13T12:21:12;30.30;39.30
20081;DHT22;10200;49.232;9.222;2023-07-13T12:23:39;30.70;38.60
20081;DHT22;10200;49.232;9.222;2023-07-13T12:26:06;30.80;37.50
20081;DHT22;10200;49.232;9.222;2023-07-13T12:28:37;31.10;38.70
20081;DHT22;10200;49.232;9.222;2023-07-13T12:31:06;31.30;37.70
20081;DHT22;10200;49.232;9.222;2023-07-13T12:33:33;31.50;37.10
20081;DHT22;10200;49.232;9.222;2023-07-13T12:36:05;31.60;36.70
20081;DHT22;10200;49.232;9.222;2023-07-13T12:38:32;31.40;35.00
20081;DHT22;10200;49.232;9.222;2023-07-13T12:40:58;31.20;37.50
20081;DHT22;10200;49.232;9.222;2023-07-13T12:43:25;31.20;36.50
20081;DHT22;10200;49.232;9.222;2023-07-13T12:45:59;31.40;37.70
20081;DHT22;10200;49.232;9.222;2023-07-13T12:48:26;31.40;36.50
20081;DHT22;10200;49.232;9.222;2023-07-13T12:50:54;31.50;36.30
20081;DHT22;10200;49.232;9.222;2023-07-13T12:53:29;31.40;35.80
20081;DHT22;10200;49.232;9.222;2023-07-13T12:56:02;31.00;36.50
20081;DHT22;10200;49.232;9.222;2023-07-13T12:58:32;30.70;37.20
20081;DHT22;10200;49.232;9.222;2023-07-13T13:01:03;30.40;38.00
20081;DHT22;10200;49.232;9.222;2023-07-13T13:03:35;30.30;38.30
20081;DHT22;10200;49.232;9.222;2023-07-13T13:08:42;30.50;38.60
20081;DHT22;10200;49.232;9.222;2023-07-13T13:11:09;30.20;37.20
20081;DHT22;10200;49.232;9.222;2023-07-13T13:13:35;30.00;39.00
20081;DHT22;10200;49.232;9.222;2023-07-13T13:16:28;30.00;39.20
20081;DHT22;10200;49.232;9.222;2023-07-13T13:18:57;30.30;38.40
20081;DHT22;10200;49.232;9.222;2023-07-13T13:21:25;30.70;37.60
20081;DHT22;10200;49.232;9.222;2023-07-13T13:23:52;30.90;36.60
20081;DHT22;10200;49.232;9.222;2023-07-13T13:26:19;31.00;36.30
20081;DHT22;10200;49.232;9.222;2023-07-13T13:28:46;31.10;36.30
20081;DHT22;10200;49.232;9.222;2023-07-13T13:31:13;31.10;36.60
20081;DHT22;10200;49.232;9.222;2023-07-13T13:33:45;31.10;36.80
20081;DHT22;10200;49.232;9.222;2023-07-13T13:36:16;31.10;37.30
20081;DHT22;10200;49.232;9.222;2023-07-13T13:38:43;31.10;36.60
20081;DHT22;10200;49.232;9.222;2023-07-13T13:41:11;30.90;36.40
20081;DHT22;10200;49.232;9.222;2023-07-13T13:43:39;30.60;37.10
20081;DHT22;10200;49.232;9.222;2023-07-13T13:46:15;30.30;37.30
20081;DHT22;10200;49.232;9.222;2023-07-13T13:48:43;30.20;37.90
20081;DHT22;10200;49.232;9.222;2023-07-13T13:51:21;30.30;37.60
20081;DHT22;10200;49.232;9.222;2023-07-13T13:53:48;30.60;38.50
20081;DHT22;10200;49.232;9.222;2023-07-13T13:56:18;30.80;38.20
20081;DHT22;10200;49.232;9.222;2023-07-13T13:58:44;30.70;36.60
20081;DHT22;10200;49.232;9.222;2023-07-13T14:01:16;30.60;36.90
20081;DHT22;10200;49.232;9.222;2023-07-13T14:03:43;30.60;36.60
20081;DHT22;10200;49.232;9.222;2023-07-13T14:06:14;30.40;37.10
20081;DHT22;10200;49.232;9.222;2023-07-13T14:08:40;30.20;37.00
20081;DHT22;10200;49.232;9.222;2023-07-13T14:11:11;30.10;36.90
20081;DHT22;10200;49.232;9.222;2023-07-13T14:13:43;30.00;37.50
20081;DHT22;10200;49.232;9.222;2023-07-13T14:16:15;29.90;37.40
20081;DHT22;10200;49.232;9.222;2023-07-13T14:18:43;29.70;37.50
20081;DHT22;10200;49.232;9.222;2023-07-13T14:21:17;29.80;37.80
20081;DHT22;10200;49.232;9.222;2023-07-13T14:23:45;30.00;38.50
20081;DHT22;10200;49.232;9.222;2023-07-13T14:26:24;30.10;37.20
20081;DHT22;10200;49.232;9.222;2023-07-13T14:28:55;29.90;37.30
20081;DHT22;10200;49.232;9.222;2023-07-13T14:31:23;29.70;37.10
20081;DHT22;10200;49.232;9.222;2023-07-13T14:33:48;29.70;38.20
20081;DHT22;10200;49.232;9.222;2023-07-13T14:38:51;29.60;37.80
20081;DHT22;10200;49.232;9.222;2023-07-13T14:41:17;29.60;38.40
20081;DHT22;10200;49.232;9.222;2023-07-13T14:43:43;29.60;38.20
20081;DHT22;10200;49.232;9.222;2023-07-13T14:46:26;29.60;38.20
20081;DHT22;10200;49.232;9.222;2023-07-13T14:49:04;29.50;37.90
20081;DHT22;10200;49.232;9.222;2023-07-13T14:51:32;29.70;38.10
20081;DHT22;10200;49.232;9.222;2023-07-13T14:54:02;29.70;37.50
20081;DHT22;10200;49.232;9.222;2023-07-13T14:56:28;29.80;37.70
20081;DHT22;10200;49.232;9.222;2023-07-13T14:58:54;29.90;37.50
20081;DHT22;10200;49.232;9.222;2023-07-13T15:01:20;29.90;36.60
20081;DHT22;10200;49.232;9.222;2023-07-13T15:03:48;29.90;37.50
20081;DHT22;10200;49.232;9.222;2023-07-13T15:06:15;29.90;37.20
20081;DHT22;10200;49.232;9.222;2023-07-13T15:08:41;29.90;36.80
20081;DHT22;10200;49.232;9.222;2023-07-13T15:11:08;29.80;36.70
20081;DHT22;10200;49.232;9.222;2023-07-13T15:13:38;29.80;37.00
20081;DHT22;10200;49.232;9.222;2023-07-13T15:16:04;29.90;37.00
20081;DHT22;10200;49.232;9.222;2023-07-13T15:18:30;30.00;36.80
20081;DHT22;10200;49.232;9.222;2023-07-13T15:20:58;30.10;36.60
20081;DHT22;10200;49.232;9.222;2023-07-13T15:23:28;30.00;36.00
20081;DHT22;10200;49.232;9.222;2023-07-13T15:25:53;30.10;36.70
20081;DHT22;10200;49.232;9.222;2023-07-13T15:28:19;30.20;35.70
20081;DHT22;10200;49.232;9.222;2023-07-13T15:30:47;30.20;36.40
20081;DHT22;10200;49.232;9.222;2023-07-13T15:33:26;30.30;35.70
20081;DHT22;10200;49.232;9.222;2023-07-13T15:35:53;30.10;36.10
20081;DHT22;10200;49.232;9.222;2023-07-13T15:38:27;30.00;35.90
20081;DHT22;10200;49.232;9.222;2023-07-13T15:40:53;29.90;35.20
20081;DHT22;10200;49.232;9.222;2023-07-13T15:43:21;29.90;35.70
20081;DHT22;10200;49.232;9.222;2023-07-13T15:45:50;29.80;35.30
20081;DHT22;10200;49.232;9.222;2023-07-13T15:48:21;29.80;35.90
20081;DHT22;10200;49.232;9.222;2023-07-13T15:50:48;29.80;36.10
20081;DHT22;10200;49.232;9.222;2023-07-13T15:53:24;29.80;35.90
20081;DHT22;10200;49.232;9.222;2023-07-13T15:55:51;29.70;36.60
20081;DHT22;10200;49.232;9.222;2023-07-13T15:58:17;29.70;36.70
20081;DHT22;10200;49.232;9.222;2023-07-13T16:00:44;29.70;36.40
20081;DHT22;10200;49.232;9.222;2023-07-13T16:03:10;29.70;37.10
20081;DHT22;10200;49.232;9.222;2023-07-13T16:05:37;29.70;37.60
20081;DHT22;10200;49.232;9.222;2023-07-13T16:08:06;29.70;36.60
20081;DHT22;10200;49.232;9.222;2023-07-13T16:10:42;29.70;37.10
20081;DHT22;10200;49.232;9.222;2023-07-13T16:13:14;29.80;36.60
20081;DHT22;10200;49.232;9.222;2023-07-13T16:15:40;29.70;36.60
20081;DHT22;10200;49.232;9.222;2023-07-13T16:18:10;29.60;36.20
20081;DHT22;10200;49.232;9.222;2023-07-13T16:20:38;29.40;36.90